KCID/CID METAR and TAF weather

Enter ICAO airport designator
Station Type Date Time Source
KCID METAR 2019/08/17 11:12 UTC NOAA

KCID 171112Z 00000KT 10SM BKN028 BKN033 BKN043 17/16 A2992 RMK AO2 T01720161


Station Type Date Time Source
KCID Decoded METAR 2019/08/17 11:12 UTC NOAA

Station name not available
Aug 17, 2019 - 07:12 AM EDT / 2019.08.17 1112 UTC
Wind: Calm:0
Visibility: 10 mile(s):0
Sky conditions: mostly cloudy
Temperature: 63.0 F (17.2 C)
Dew Point: 61.0 F (16.1 C)
Relative Humidity: 93%
Pressure (altimeter): 29.92 in. Hg (1013 hPa)
ob: KCID 171112Z 00000KT 10SM BKN028 BKN033 BKN043 17/16 A2992 RMK AO2 T01720161
cycle: 11

Station Type Date Time Source
KCID TAF 2019/08/17 12:22 UTC NOAA

TAF KCID 171120Z 1712/1812 VRB04KT 6SM BR SCT030 BKN120
FM171700 17009KT P6SM SCT025
FM180730 18009KT 4SM TSRA OVC040CB
FM181000 19009KT P6SM BKN025

Example: see airport list